sensor_id;sensor_type;location;lat;lon;timestamp;P1;durP1;ratioP1;P2;durP2;ratioP2
21181;SDS011;10749;46.296;7.524;2023-01-29T00:00:50;23.23;;;12.93;;
21181;SDS011;10749;46.296;7.524;2023-01-29T00:03:15;24.60;;;13.80;;
21181;SDS011;10749;46.296;7.524;2023-01-29T00:05:40;25.33;;;13.23;;
21181;SDS011;10749;46.296;7.524;2023-01-29T00:08:06;23.33;;;13.20;;
21181;SDS011;10749;46.296;7.524;2023-01-29T00:10:31;26.30;;;13.13;;
21181;SDS011;10749;46.296;7.524;2023-01-29T00:12:57;22.03;;;12.47;;
21181;SDS011;10749;46.296;7.524;2023-01-29T00:15:22;23.23;;;13.03;;
21181;SDS011;10749;46.296;7.524;2023-01-29T00:17:47;23.80;;;12.87;;
21181;SDS011;10749;46.296;7.524;2023-01-29T00:20:13;22.70;;;12.90;;
21181;SDS011;10749;46.296;7.524;2023-01-29T00:22:38;25.10;;;13.77;;
21181;SDS011;10749;46.296;7.524;2023-01-29T00:25:03;24.73;;;13.63;;
21181;SDS011;10749;46.296;7.524;2023-01-29T00:27:29;23.73;;;13.13;;
21181;SDS011;10749;46.296;7.524;2023-01-29T00:29:54;23.57;;;12.47;;
21181;SDS011;10749;46.296;7.524;2023-01-29T00:32:41;23.10;;;13.13;;
21181;SDS011;10749;46.296;7.524;2023-01-29T00:35:06;23.80;;;12.83;;
21181;SDS011;10749;46.296;7.524;2023-01-29T00:37:32;22.50;;;12.87;;
21181;SDS011;10749;46.296;7.524;2023-01-29T00:39:57;22.07;;;12.37;;
21181;SDS011;10749;46.296;7.524;2023-01-29T00:42:23;27.10;;;12.93;;
21181;SDS011;10749;46.296;7.524;2023-01-29T00:45:08;21.80;;;12.17;;
21181;SDS011;10749;46.296;7.524;2023-01-29T00:47:34;23.17;;;12.97;;
21181;SDS011;10749;46.296;7.524;2023-01-29T00:50:06;25.10;;;13.47;;
21181;SDS011;10749;46.296;7.524;2023-01-29T00:52:34;22.93;;;12.80;;
21181;SDS011;10749;46.296;7.524;2023-01-29T00:55:00;25.97;;;12.83;;
21181;SDS011;10749;46.296;7.524;2023-01-29T00:57:27;22.27;;;13.17;;
21181;SDS011;10749;46.296;7.524;2023-01-29T00:59:54;22.30;;;12.60;;
21181;SDS011;10749;46.296;7.524;2023-01-29T01:02:19;23.73;;;12.93;;
21181;SDS011;10749;46.296;7.524;2023-01-29T01:05:04;21.27;;;12.90;;
21181;SDS011;10749;46.296;7.524;2023-01-29T01:07:31;24.07;;;13.20;;
21181;SDS011;10749;46.296;7.524;2023-01-29T01:09:57;21.27;;;12.23;;
21181;SDS011;10749;46.296;7.524;2023-01-29T01:12:41;23.70;;;13.37;;
21181;SDS011;10749;46.296;7.524;2023-01-29T01:15:06;23.13;;;12.73;;
21181;SDS011;10749;46.296;7.524;2023-01-29T01:17:32;23.17;;;12.90;;
21181;SDS011;10749;46.296;7.524;2023-01-29T01:19:58;23.53;;;12.90;;
21181;SDS011;10749;46.296;7.524;2023-01-29T01:22:23;21.53;;;13.00;;
21181;SDS011;10749;46.296;7.524;2023-01-29T01:24:48;21.97;;;12.50;;
21181;SDS011;10749;46.296;7.524;2023-01-29T01:27:14;22.17;;;12.10;;
21181;SDS011;10749;46.296;7.524;2023-01-29T01:29:40;23.63;;;12.77;;
21181;SDS011;10749;46.296;7.524;2023-01-29T01:32:05;24.43;;;13.30;;
21181;SDS011;10749;46.296;7.524;2023-01-29T01:34:31;22.90;;;13.10;;
21181;SDS011;10749;46.296;7.524;2023-01-29T01:36:56;22.37;;;13.07;;
21181;SDS011;10749;46.296;7.524;2023-01-29T01:39:22;26.67;;;13.07;;
21181;SDS011;10749;46.296;7.524;2023-01-29T01:41:48;24.27;;;12.70;;
21181;SDS011;10749;46.296;7.524;2023-01-29T01:47:16;23.50;;;13.10;;
21181;SDS011;10749;46.296;7.524;2023-01-29T01:49:46;24.80;;;13.20;;
21181;SDS011;10749;46.296;7.524;2023-01-29T01:52:12;21.93;;;12.43;;
21181;SDS011;10749;46.296;7.524;2023-01-29T01:54:40;22.63;;;12.00;;
21181;SDS011;10749;46.296;7.524;2023-01-29T01:57:12;23.80;;;12.77;;
21181;SDS011;10749;46.296;7.524;2023-01-29T01:59:42;23.47;;;12.60;;
21181;SDS011;10749;46.296;7.524;2023-01-29T02:02:12;24.07;;;12.60;;
21181;SDS011;10749;46.296;7.524;2023-01-29T02:04:57;21.27;;;12.50;;
21181;SDS011;10749;46.296;7.524;2023-01-29T02:07:41;23.70;;;12.90;;
21181;SDS011;10749;46.296;7.524;2023-01-29T02:10:29;23.87;;;12.70;;
21181;SDS011;10749;46.296;7.524;2023-01-29T02:13:01;24.40;;;13.20;;
21181;SDS011;10749;46.296;7.524;2023-01-29T02:15:28;22.50;;;12.57;;
21181;SDS011;10749;46.296;7.524;2023-01-29T02:17:53;19.60;;;11.63;;
21181;SDS011;10749;46.296;7.524;2023-01-29T02:20:28;21.10;;;11.97;;
21181;SDS011;10749;46.296;7.524;2023-01-29T02:26:08;29.13;;;12.40;;
21181;SDS011;10749;46.296;7.524;2023-01-29T02:34:36;21.23;;;11.73;;
21181;SDS011;10749;46.296;7.524;2023-01-29T02:40:25;21.23;;;12.43;;
21181;SDS011;10749;46.296;7.524;2023-01-29T02:48:35;20.30;;;11.27;;
21181;SDS011;10749;46.296;7.524;2023-01-29T02:51:07;20.90;;;12.33;;
21181;SDS011;10749;46.296;7.524;2023-01-29T02:53:44;21.43;;;11.80;;
21181;SDS011;10749;46.296;7.524;2023-01-29T02:56:16;23.30;;;11.83;;
21181;SDS011;10749;46.296;7.524;2023-01-29T02:58:46;23.40;;;11.87;;
21181;SDS011;10749;46.296;7.524;2023-01-29T03:01:38;19.87;;;12.17;;
21181;SDS011;10749;46.296;7.524;2023-01-29T03:04:13;21.07;;;12.00;;
21181;SDS011;10749;46.296;7.524;2023-01-29T03:06:46;24.13;;;12.43;;
21181;SDS011;10749;46.296;7.524;2023-01-29T03:09:27;22.67;;;12.37;;
21181;SDS011;10749;46.296;7.524;2023-01-29T03:12:01;21.43;;;11.73;;
21181;SDS011;10749;46.296;7.524;2023-01-29T03:14:42;22.13;;;12.10;;
21181;SDS011;10749;46.296;7.524;2023-01-29T03:17:32;22.87;;;11.93;;
21181;SDS011;10749;46.296;7.524;2023-01-29T03:20:03;21.20;;;12.17;;
21181;SDS011;10749;46.296;7.524;2023-01-29T03:22:33;21.97;;;12.43;;
21181;SDS011;10749;46.296;7.524;2023-01-29T03:25:02;24.73;;;11.80;;
21181;SDS011;10749;46.296;7.524;2023-01-29T03:27:55;24.10;;;13.03;;
21181;SDS011;10749;46.296;7.524;2023-01-29T03:30:52;23.77;;;12.07;;
21181;SDS011;10749;46.296;7.524;2023-01-29T03:33:45;20.70;;;11.57;;
21181;SDS011;10749;46.296;7.524;2023-01-29T03:36:18;25.03;;;12.53;;
21181;SDS011;10749;46.296;7.524;2023-01-29T03:38:50;20.87;;;12.23;;
21181;SDS011;10749;46.296;7.524;2023-01-29T03:41:23;24.17;;;11.90;;
21181;SDS011;10749;46.296;7.524;2023-01-29T03:44:01;21.03;;;12.60;;
21181;SDS011;10749;46.296;7.524;2023-01-29T03:46:37;20.77;;;11.50;;
21181;SDS011;10749;46.296;7.524;2023-01-29T03:52:18;23.40;;;12.23;;
21181;SDS011;10749;46.296;7.524;2023-01-29T03:57:27;19.20;;;11.47;;
21181;SDS011;10749;46.296;7.524;2023-01-29T04:02:46;26.80;;;11.90;;
21181;SDS011;10749;46.296;7.524;2023-01-29T04:05:14;23.03;;;12.87;;
21181;SDS011;10749;46.296;7.524;2023-01-29T04:07:43;23.10;;;12.00;;
21181;SDS011;10749;46.296;7.524;2023-01-29T04:10:11;24.63;;;12.17;;
21181;SDS011;10749;46.296;7.524;2023-01-29T04:12:42;21.07;;;12.10;;
21181;SDS011;10749;46.296;7.524;2023-01-29T04:15:12;20.10;;;11.33;;
21181;SDS011;10749;46.296;7.524;2023-01-29T04:17:40;22.00;;;12.03;;
21181;SDS011;10749;46.296;7.524;2023-01-29T04:20:09;23.23;;;11.90;;
21181;SDS011;10749;46.296;7.524;2023-01-29T04:22:36;22.40;;;12.17;;
21181;SDS011;10749;46.296;7.524;2023-01-29T04:25:04;24.43;;;11.87;;
21181;SDS011;10749;46.296;7.524;2023-01-29T04:34:00;21.90;;;11.60;;
21181;SDS011;10749;46.296;7.524;2023-01-29T04:41:58;22.30;;;11.90;;
21181;SDS011;10749;46.296;7.524;2023-01-29T04:44:49;22.77;;;12.20;;
21181;SDS011;10749;46.296;7.524;2023-01-29T04:47:45;20.97;;;11.73;;
21181;SDS011;10749;46.296;7.524;2023-01-29T04:50:35;22.23;;;11.13;;
21181;SDS011;10749;46.296;7.524;2023-01-29T04:53:06;22.83;;;11.30;;
21181;SDS011;10749;46.296;7.524;2023-01-29T04:55:40;20.53;;;11.30;;
21181;SDS011;10749;46.296;7.524;2023-01-29T04:58:13;21.17;;;11.40;;
21181;SDS011;10749;46.296;7.524;2023-01-29T05:00:42;20.53;;;12.00;;
21181;SDS011;10749;46.296;7.524;2023-01-29T05:03:09;20.50;;;11.77;;
21181;SDS011;10749;46.296;7.524;2023-01-29T05:05:38;20.80;;;11.90;;
21181;SDS011;10749;46.296;7.524;2023-01-29T05:08:06;23.17;;;12.23;;
21181;SDS011;10749;46.296;7.524;2023-01-29T05:10:33;23.77;;;11.90;;
21181;SDS011;10749;46.296;7.524;2023-01-29T05:13:00;18.83;;;11.23;;
21181;SDS011;10749;46.296;7.524;2023-01-29T05:15:29;23.80;;;11.00;;
21181;SDS011;10749;46.296;7.524;2023-01-29T05:17:59;21.87;;;11.90;;
21181;SDS011;10749;46.296;7.524;2023-01-29T05:20:27;22.53;;;12.10;;
21181;SDS011;10749;46.296;7.524;2023-01-29T05:22:56;22.20;;;11.73;;
21181;SDS011;10749;46.296;7.524;2023-01-29T05:25:22;22.53;;;11.77;;
21181;SDS011;10749;46.296;7.524;2023-01-29T05:27:50;22.53;;;11.40;;
21181;SDS011;10749;46.296;7.524;2023-01-29T05:30:37;21.47;;;11.17;;
21181;SDS011;10749;46.296;7.524;2023-01-29T05:33:04;21.83;;;10.60;;
21181;SDS011;10749;46.296;7.524;2023-01-29T05:35:35;19.80;;;10.60;;
21181;SDS011;10749;46.296;7.524;2023-01-29T05:38:00;17.20;;;9.97;;
21181;SDS011;10749;46.296;7.524;2023-01-29T05:40:26;19.67;;;10.77;;
21181;SDS011;10749;46.296;7.524;2023-01-29T05:42:51;21.37;;;10.80;;
21181;SDS011;10749;46.296;7.524;2023-01-29T05:45:17;21.47;;;10.27;;
21181;SDS011;10749;46.296;7.524;2023-01-29T05:47:43;20.00;;;10.20;;
21181;SDS011;10749;46.296;7.524;2023-01-29T05:50:09;17.93;;;10.10;;
21181;SDS011;10749;46.296;7.524;2023-01-29T05:52:35;20.33;;;9.87;;
21181;SDS011;10749;46.296;7.524;2023-01-29T05:55:00;17.90;;;9.73;;
21181;SDS011;10749;46.296;7.524;2023-01-29T05:57:26;20.00;;;11.17;;
21181;SDS011;10749;46.296;7.524;2023-01-29T05:59:51;21.20;;;10.87;;
21181;SDS011;10749;46.296;7.524;2023-01-29T06:02:16;23.13;;;11.63;;
21181;SDS011;10749;46.296;7.524;2023-01-29T06:04:41;18.50;;;10.73;;
21181;SDS011;10749;46.296;7.524;2023-01-29T06:07:07;19.17;;;10.77;;
21181;SDS011;10749;46.296;7.524;2023-01-29T06:09:32;21.00;;;10.73;;
21181;SDS011;10749;46.296;7.524;2023-01-29T06:11:57;18.97;;;10.93;;
21181;SDS011;10749;46.296;7.524;2023-01-29T06:14:22;19.13;;;11.30;;
21181;SDS011;10749;46.296;7.524;2023-01-29T06:16:48;22.13;;;10.50;;
21181;SDS011;10749;46.296;7.524;2023-01-29T06:19:13;17.33;;;10.67;;
21181;SDS011;10749;46.296;7.524;2023-01-29T06:21:38;18.10;;;10.40;;
21181;SDS011;10749;46.296;7.524;2023-01-29T06:24:04;18.70;;;10.73;;
21181;SDS011;10749;46.296;7.524;2023-01-29T06:26:29;18.80;;;10.40;;
21181;SDS011;10749;46.296;7.524;2023-01-29T06:28:54;19.33;;;11.37;;
21181;SDS011;10749;46.296;7.524;2023-01-29T06:31:20;19.50;;;10.13;;
21181;SDS011;10749;46.296;7.524;2023-01-29T06:33:45;18.03;;;9.53;;
21181;SDS011;10749;46.296;7.524;2023-01-29T06:36:10;17.13;;;9.60;;
21181;SDS011;10749;46.296;7.524;2023-01-29T06:38:36;20.77;;;10.70;;
21181;SDS011;10749;46.296;7.524;2023-01-29T06:41:10;21.07;;;10.20;;
21181;SDS011;10749;46.296;7.524;2023-01-29T06:43:37;16.47;;;9.30;;
21181;SDS011;10749;46.296;7.524;2023-01-29T06:46:05;17.50;;;9.57;;
21181;SDS011;10749;46.296;7.524;2023-01-29T06:48:31;18.67;;;10.23;;
21181;SDS011;10749;46.296;7.524;2023-01-29T06:51:00;18.67;;;10.73;;
21181;SDS011;10749;46.296;7.524;2023-01-29T06:53:27;19.93;;;10.57;;
21181;SDS011;10749;46.296;7.524;2023-01-29T06:55:52;19.17;;;10.37;;
21181;SDS011;10749;46.296;7.524;2023-01-29T06:58:18;19.37;;;10.90;;
21181;SDS011;10749;46.296;7.524;2023-01-29T07:00:44;20.70;;;10.30;;
21181;SDS011;10749;46.296;7.524;2023-01-29T07:03:09;18.67;;;10.50;;
21181;SDS011;10749;46.296;7.524;2023-01-29T07:05:35;20.37;;;10.83;;
21181;SDS011;10749;46.296;7.524;2023-01-29T07:08:00;19.13;;;9.93;;
21181;SDS011;10749;46.296;7.524;2023-01-29T07:10:26;23.23;;;11.57;;
21181;SDS011;10749;46.296;7.524;2023-01-29T07:12:51;21.33;;;11.27;;
21181;SDS011;10749;46.296;7.524;2023-01-29T07:15:16;20.07;;;10.60;;
21181;SDS011;10749;46.296;7.524;2023-01-29T07:17:54;19.80;;;10.67;;
21181;SDS011;10749;46.296;7.524;2023-01-29T07:20:24;20.63;;;10.40;;
21181;SDS011;10749;46.296;7.524;2023-01-29T07:22:50;24.53;;;11.53;;
21181;SDS011;10749;46.296;7.524;2023-01-29T07:25:15;22.67;;;10.30;;
21181;SDS011;10749;46.296;7.524;2023-01-29T07:27:41;21.83;;;10.90;;
21181;SDS011;10749;46.296;7.524;2023-01-29T07:30:06;19.20;;;10.90;;
21181;SDS011;10749;46.296;7.524;2023-01-29T07:32:32;19.03;;;10.90;;
21181;SDS011;10749;46.296;7.524;2023-01-29T07:34:57;23.73;;;11.30;;
21181;SDS011;10749;46.296;7.524;2023-01-29T07:37:22;19.33;;;10.90;;
21181;SDS011;10749;46.296;7.524;2023-01-29T07:39:48;16.90;;;9.67;;
21181;SDS011;10749;46.296;7.524;2023-01-29T07:42:13;25.07;;;11.53;;
21181;SDS011;10749;46.296;7.524;2023-01-29T07:44:38;20.50;;;11.23;;
21181;SDS011;10749;46.296;7.524;2023-01-29T07:47:03;20.63;;;10.60;;
21181;SDS011;10749;46.296;7.524;2023-01-29T07:49:29;25.23;;;11.00;;
21181;SDS011;10749;46.296;7.524;2023-01-29T07:51:54;20.70;;;10.90;;
21181;SDS011;10749;46.296;7.524;2023-01-29T07:54:20;19.70;;;11.13;;
21181;SDS011;10749;46.296;7.524;2023-01-29T07:56:45;23.20;;;11.43;;
21181;SDS011;10749;46.296;7.524;2023-01-29T07:59:10;19.87;;;11.40;;
21181;SDS011;10749;46.296;7.524;2023-01-29T08:01:35;22.07;;;11.37;;
21181;SDS011;10749;46.296;7.524;2023-01-29T08:04:01;22.73;;;12.00;;
21181;SDS011;10749;46.296;7.524;2023-01-29T08:06:26;24.43;;;13.27;;
21181;SDS011;10749;46.296;7.524;2023-01-29T08:08:51;24.37;;;13.93;;
21181;SDS011;10749;46.296;7.524;2023-01-29T08:11:17;26.37;;;14.50;;
21181;SDS011;10749;46.296;7.524;2023-01-29T08:13:42;26.03;;;14.30;;
21181;SDS011;10749;46.296;7.524;2023-01-29T08:16:08;23.20;;;13.80;;
21181;SDS011;10749;46.296;7.524;2023-01-29T08:18:35;26.63;;;15.27;;
21181;SDS011;10749;46.296;7.524;2023-01-29T08:21:01;27.80;;;15.17;;
21181;SDS011;10749;46.296;7.524;2023-01-29T08:23:26;25.67;;;14.40;;
21181;SDS011;10749;46.296;7.524;2023-01-29T08:25:51;28.47;;;14.80;;
21181;SDS011;10749;46.296;7.524;2023-01-29T08:28:16;23.90;;;13.07;;
21181;SDS011;10749;46.296;7.524;2023-01-29T08:30:42;22.67;;;12.50;;
21181;SDS011;10749;46.296;7.524;2023-01-29T08:33:08;24.10;;;13.17;;
21181;SDS011;10749;46.296;7.524;2023-01-29T08:35:33;25.30;;;13.87;;
21181;SDS011;10749;46.296;7.524;2023-01-29T08:38:02;26.93;;;13.10;;
21181;SDS011;10749;46.296;7.524;2023-01-29T08:40:30;22.60;;;12.63;;
21181;SDS011;10749;46.296;7.524;2023-01-29T08:42:58;21.23;;;12.33;;
21181;SDS011;10749;46.296;7.524;2023-01-29T08:45:24;23.10;;;12.63;;
21181;SDS011;10749;46.296;7.524;2023-01-29T08:47:49;25.87;;;12.80;;
21181;SDS011;10749;46.296;7.524;2023-01-29T08:50:15;25.63;;;13.53;;
21181;SDS011;10749;46.296;7.524;2023-01-29T08:52:41;21.60;;;12.60;;
21181;SDS011;10749;46.296;7.524;2023-01-29T08:55:07;23.17;;;12.63;;
21181;SDS011;10749;46.296;7.524;2023-01-29T08:57:32;23.30;;;13.00;;
21181;SDS011;10749;46.296;7.524;2023-01-29T08:59:58;24.77;;;12.87;;
21181;SDS011;10749;46.296;7.524;2023-01-29T09:02:23;29.27;;;14.20;;
21181;SDS011;10749;46.296;7.524;2023-01-29T09:04:48;28.03;;;14.00;;
21181;SDS011;10749;46.296;7.524;2023-01-29T09:07:13;25.03;;;13.67;;
21181;SDS011;10749;46.296;7.524;2023-01-29T09:09:39;26.17;;;14.73;;
21181;SDS011;10749;46.296;7.524;2023-01-29T09:12:04;25.63;;;14.27;;
21181;SDS011;10749;46.296;7.524;2023-01-29T09:14:30;26.00;;;14.67;;
21181;SDS011;10749;46.296;7.524;2023-01-29T09:16:56;27.47;;;15.53;;
21181;SDS011;10749;46.296;7.524;2023-01-29T09:19:22;26.43;;;14.53;;
21181;SDS011;10749;46.296;7.524;2023-01-29T09:21:47;24.37;;;13.47;;
21181;SDS011;10749;46.296;7.524;2023-01-29T09:24:13;24.23;;;13.30;;
21181;SDS011;10749;46.296;7.524;2023-01-29T09:26:38;23.43;;;13.43;;
21181;SDS011;10749;46.296;7.524;2023-01-29T09:29:04;25.80;;;13.80;;
21181;SDS011;10749;46.296;7.524;2023-01-29T09:31:30;22.80;;;13.03;;
21181;SDS011;10749;46.296;7.524;2023-01-29T09:33:55;23.43;;;13.70;;
21181;SDS011;10749;46.296;7.524;2023-01-29T09:36:20;22.50;;;13.43;;
21181;SDS011;10749;46.296;7.524;2023-01-29T09:38:45;24.90;;;13.43;;
21181;SDS011;10749;46.296;7.524;2023-01-29T09:47:39;21.17;;;12.57;;
21181;SDS011;10749;46.296;7.524;2023-01-29T09:52:36;20.10;;;12.13;;
21181;SDS011;10749;46.296;7.524;2023-01-29T10:00:24;21.40;;;12.13;;
21181;SDS011;10749;46.296;7.524;2023-01-29T10:02:58;20.00;;;11.83;;
21181;SDS011;10749;46.296;7.524;2023-01-29T10:13:47;22.80;;;12.20;;
21181;SDS011;10749;46.296;7.524;2023-01-29T10:26:57;22.13;;;12.83;;
21181;SDS011;10749;46.296;7.524;2023-01-29T10:29:23;22.23;;;12.47;;
21181;SDS011;10749;46.296;7.524;2023-01-29T10:31:55;25.17;;;12.67;;
21181;SDS011;10749;46.296;7.524;2023-01-29T10:34:34;20.77;;;11.70;;
21181;SDS011;10749;46.296;7.524;2023-01-29T10:37:16;20.00;;;12.10;;
21181;SDS011;10749;46.296;7.524;2023-01-29T10:39:48;22.87;;;12.00;;
21181;SDS011;10749;46.296;7.524;2023-01-29T10:47:26;20.50;;;11.20;;
21181;SDS011;10749;46.296;7.524;2023-01-29T10:49:58;17.50;;;9.97;;
21181;SDS011;10749;46.296;7.524;2023-01-29T10:56:02;18.77;;;10.60;;
21181;SDS011;10749;46.296;7.524;2023-01-29T10:58:50;17.73;;;10.23;;
21181;SDS011;10749;46.296;7.524;2023-01-29T11:01:18;23.83;;;11.57;;
21181;SDS011;10749;46.296;7.524;2023-01-29T11:03:44;20.90;;;11.93;;
21181;SDS011;10749;46.296;7.524;2023-01-29T11:06:16;18.00;;;11.30;;
21181;SDS011;10749;46.296;7.524;2023-01-29T11:08:48;20.57;;;12.20;;
21181;SDS011;10749;46.296;7.524;2023-01-29T11:11:19;17.60;;;11.10;;
21181;SDS011;10749;46.296;7.524;2023-01-29T11:13:56;16.63;;;10.83;;
21181;SDS011;10749;46.296;7.524;2023-01-29T11:16:29;21.70;;;11.40;;
21181;SDS011;10749;46.296;7.524;2023-01-29T11:18:55;17.47;;;11.37;;
21181;SDS011;10749;46.296;7.524;2023-01-29T11:21:23;16.93;;;11.03;;
21181;SDS011;10749;46.296;7.524;2023-01-29T11:23:54;18.50;;;11.23;;
21181;SDS011;10749;46.296;7.524;2023-01-29T11:26:32;19.57;;;12.10;;
21181;SDS011;10749;46.296;7.524;2023-01-29T11:28:59;16.03;;;10.70;;
21181;SDS011;10749;46.296;7.524;2023-01-29T11:31:25;21.87;;;12.00;;
21181;SDS011;10749;46.296;7.524;2023-01-29T11:34:38;19.87;;;11.07;;
21181;SDS011;10749;46.296;7.524;2023-01-29T11:36:50;18.20;;;11.00;;
21181;SDS011;10749;46.296;7.524;2023-01-29T11:39:22;18.07;;;11.07;;
21181;SDS011;10749;46.296;7.524;2023-01-29T11:44:21;21.53;;;11.70;;
21181;SDS011;10749;46.296;7.524;2023-01-29T11:46:50;21.63;;;11.67;;
21181;SDS011;10749;46.296;7.524;2023-01-29T11:49:23;19.80;;;11.60;;
21181;SDS011;10749;46.296;7.524;2023-01-29T11:51:55;20.10;;;11.63;;
21181;SDS011;10749;46.296;7.524;2023-01-29T11:54:24;19.47;;;12.47;;
21181;SDS011;10749;46.296;7.524;2023-01-29T11:56:54;22.93;;;11.90;;
21181;SDS011;10749;46.296;7.524;2023-01-29T12:02:04;19.97;;;11.73;;
21181;SDS011;10749;46.296;7.524;2023-01-29T12:04:43;18.80;;;11.20;;
21181;SDS011;10749;46.296;7.524;2023-01-29T12:07:13;18.33;;;11.27;;
21181;SDS011;10749;46.296;7.524;2023-01-29T12:09:47;19.17;;;11.10;;
21181;SDS011;10749;46.296;7.524;2023-01-29T12:12:37;19.93;;;11.40;;
21181;SDS011;10749;46.296;7.524;2023-01-29T12:15:09;17.43;;;11.40;;
21181;SDS011;10749;46.296;7.524;2023-01-29T12:17:40;20.70;;;12.10;;
21181;SDS011;10749;46.296;7.524;2023-01-29T12:20:13;22.63;;;11.90;;
21181;SDS011;10749;46.296;7.524;2023-01-29T12:26:12;22.97;;;12.30;;
21181;SDS011;10749;46.296;7.524;2023-01-29T12:33:52;19.63;;;11.93;;
21181;SDS011;10749;46.296;7.524;2023-01-29T12:36:27;20.60;;;11.47;;
21181;SDS011;10749;46.296;7.524;2023-01-29T12:38:57;18.63;;;10.97;;
21181;SDS011;10749;46.296;7.524;2023-01-29T12:41:24;17.33;;;11.33;;
21181;SDS011;10749;46.296;7.524;2023-01-29T12:46:46;23.77;;;12.77;;
21181;SDS011;10749;46.296;7.524;2023-01-29T12:49:22;19.17;;;12.43;;
21181;SDS011;10749;46.296;7.524;2023-01-29T12:55:33;20.63;;;12.50;;
21181;SDS011;10749;46.296;7.524;2023-01-29T12:58:00;20.13;;;12.50;;
21181;SDS011;10749;46.296;7.524;2023-01-29T13:00:28;20.73;;;11.63;;
21181;SDS011;10749;46.296;7.524;2023-01-29T13:05:46;18.67;;;12.40;;
21181;SDS011;10749;46.296;7.524;2023-01-29T13:08:31;20.13;;;12.53;;
21181;SDS011;10749;46.296;7.524;2023-01-29T13:11:02;20.50;;;12.77;;
21181;SDS011;10749;46.296;7.524;2023-01-29T13:13:43;19.63;;;12.97;;
21181;SDS011;10749;46.296;7.524;2023-01-29T13:16:16;18.30;;;11.90;;
21181;SDS011;10749;46.296;7.524;2023-01-29T13:18:59;17.90;;;12.10;;
21181;SDS011;10749;46.296;7.524;2023-01-29T13:21:30;20.23;;;12.60;;
21181;SDS011;10749;46.296;7.524;2023-01-29T13:24:22;21.50;;;13.40;;
21181;SDS011;10749;46.296;7.524;2023-01-29T13:26:48;24.70;;;13.27;;
21181;SDS011;10749;46.296;7.524;2023-01-29T13:29:21;21.77;;;12.50;;
21181;SDS011;10749;46.296;7.524;2023-01-29T13:31:52;18.97;;;12.10;;
21181;SDS011;10749;46.296;7.524;2023-01-29T13:36:47;19.53;;;13.07;;
21181;SDS011;10749;46.296;7.524;2023-01-29T13:39:27;19.20;;;12.43;;
21181;SDS011;10749;46.296;7.524;2023-01-29T13:41:55;21.63;;;12.53;;
21181;SDS011;10749;46.296;7.524;2023-01-29T13:44:25;21.67;;;12.97;;
21181;SDS011;10749;46.296;7.524;2023-01-29T13:46:56;20.80;;;13.63;;
21181;SDS011;10749;46.296;7.524;2023-01-29T13:49:25;19.90;;;13.80;;
21181;SDS011;10749;46.296;7.524;2023-01-29T13:51:54;19.37;;;13.07;;
21181;SDS011;10749;46.296;7.524;2023-01-29T13:54:22;23.30;;;12.80;;
21181;SDS011;10749;46.296;7.524;2023-01-29T13:59:22;20.83;;;13.70;;
21181;SDS011;10749;46.296;7.524;2023-01-29T14:02:21;20.87;;;13.83;;
21181;SDS011;10749;46.296;7.524;2023-01-29T14:04:49;21.27;;;12.93;;
21181;SDS011;10749;46.296;7.524;2023-01-29T14:07:37;21.00;;;13.87;;
21181;SDS011;10749;46.296;7.524;2023-01-29T14:10:18;18.53;;;12.77;;
21181;SDS011;10749;46.296;7.524;2023-01-29T14:12:45;19.77;;;13.07;;
21181;SDS011;10749;46.296;7.524;2023-01-29T14:15:18;20.57;;;13.23;;
21181;SDS011;10749;46.296;7.524;2023-01-29T14:25:50;20.83;;;13.10;;
21181;SDS011;10749;46.296;7.524;2023-01-29T14:28:19;23.07;;;14.33;;
21181;SDS011;10749;46.296;7.524;2023-01-29T14:30:47;21.83;;;13.93;;
21181;SDS011;10749;46.296;7.524;2023-01-29T14:33:27;22.37;;;13.97;;
21181;SDS011;10749;46.296;7.524;2023-01-29T14:35:57;24.33;;;14.43;;
21181;SDS011;10749;46.296;7.524;2023-01-29T14:38:25;23.30;;;13.33;;
21181;SDS011;10749;46.296;7.524;2023-01-29T14:41:01;23.27;;;15.43;;
21181;SDS011;10749;46.296;7.524;2023-01-29T14:43:29;21.93;;;14.37;;
21181;SDS011;10749;46.296;7.524;2023-01-29T14:45:55;22.60;;;14.13;;
21181;SDS011;10749;46.296;7.524;2023-01-29T14:48:58;24.60;;;15.10;;
21181;SDS011;10749;46.296;7.524;2023-01-29T14:51:23;21.27;;;14.27;;
21181;SDS011;10749;46.296;7.524;2023-01-29T14:53:56;21.47;;;14.33;;
21181;SDS011;10749;46.296;7.524;2023-01-29T14:58:56;20.33;;;13.53;;
21181;SDS011;10749;46.296;7.524;2023-01-29T15:01:25;22.23;;;14.30;;
21181;SDS011;10749;46.296;7.524;2023-01-29T15:06:40;24.43;;;14.17;;
21181;SDS011;10749;46.296;7.524;2023-01-29T15:12:01;21.67;;;14.07;;
21181;SDS011;10749;46.296;7.524;2023-01-29T15:14:35;22.13;;;14.40;;
21181;SDS011;10749;46.296;7.524;2023-01-29T15:19:34;22.00;;;13.97;;
21181;SDS011;10749;46.296;7.524;2023-01-29T15:22:12;24.77;;;14.77;;
21181;SDS011;10749;46.296;7.524;2023-01-29T15:24:40;22.17;;;14.73;;
21181;SDS011;10749;46.296;7.524;2023-01-29T15:27:11;23.50;;;14.57;;
21181;SDS011;10749;46.296;7.524;2023-01-29T15:29:39;22.33;;;14.30;;
21181;SDS011;10749;46.296;7.524;2023-01-29T15:32:08;20.50;;;13.97;;
21181;SDS011;10749;46.296;7.524;2023-01-29T15:34:41;20.23;;;13.27;;
21181;SDS011;10749;46.296;7.524;2023-01-29T15:37:22;21.43;;;14.03;;
21181;SDS011;10749;46.296;7.524;2023-01-29T15:39:58;21.57;;;14.00;;
21181;SDS011;10749;46.296;7.524;2023-01-29T15:42:25;23.43;;;14.23;;
21181;SDS011;10749;46.296;7.524;2023-01-29T15:45:18;21.37;;;13.43;;
21181;SDS011;10749;46.296;7.524;2023-01-29T15:47:45;23.80;;;15.30;;
21181;SDS011;10749;46.296;7.524;2023-01-29T15:50:11;25.03;;;15.67;;
21181;SDS011;10749;46.296;7.524;2023-01-29T15:52:38;25.73;;;14.60;;
21181;SDS011;10749;46.296;7.524;2023-01-29T15:55:03;27.67;;;14.77;;
21181;SDS011;10749;46.296;7.524;2023-01-29T15:57:33;24.20;;;15.50;;
21181;SDS011;10749;46.296;7.524;2023-01-29T16:00:02;24.67;;;15.37;;
21181;SDS011;10749;46.296;7.524;2023-01-29T16:05:01;26.87;;;14.10;;
21181;SDS011;10749;46.296;7.524;2023-01-29T16:07:27;25.50;;;14.50;;
21181;SDS011;10749;46.296;7.524;2023-01-29T16:09:54;25.73;;;13.50;;
21181;SDS011;10749;46.296;7.524;2023-01-29T16:12:20;23.30;;;14.40;;
21181;SDS011;10749;46.296;7.524;2023-01-29T16:14:45;27.17;;;13.60;;
21181;SDS011;10749;46.296;7.524;2023-01-29T16:17:29;22.67;;;14.33;;
21181;SDS011;10749;46.296;7.524;2023-01-29T16:20:00;25.30;;;14.20;;
21181;SDS011;10749;46.296;7.524;2023-01-29T16:22:33;23.93;;;14.43;;
21181;SDS011;10749;46.296;7.524;2023-01-29T16:25:02;23.47;;;14.97;;
21181;SDS011;10749;46.296;7.524;2023-01-29T16:27:29;27.67;;;14.53;;
21181;SDS011;10749;46.296;7.524;2023-01-29T16:29:55;25.03;;;14.27;;
21181;SDS011;10749;46.296;7.524;2023-01-29T16:32:21;24.53;;;14.20;;
21181;SDS011;10749;46.296;7.524;2023-01-29T16:34:46;24.63;;;14.20;;
21181;SDS011;10749;46.296;7.524;2023-01-29T16:37:22;27.37;;;14.90;;
21181;SDS011;10749;46.296;7.524;2023-01-29T16:40:20;27.77;;;14.50;;
21181;SDS011;10749;46.296;7.524;2023-01-29T16:42:55;27.23;;;14.30;;
21181;SDS011;10749;46.296;7.524;2023-01-29T16:45:42;21.97;;;13.47;;
21181;SDS011;10749;46.296;7.524;2023-01-29T16:48:30;23.10;;;14.53;;
21181;SDS011;10749;46.296;7.524;2023-01-29T16:53:51;29.00;;;15.33;;